Time;durP1;ratioP1;P1;durP2;ratioP2;P2;SDS_P1;SDS_P2;PMS_P1;PMS_P2;Temp;Humidity;BMP_temperature;BMP_pressure;BME280_temperature;BME280_humidity;BME280_pressure;Samples;Min_cycle;Max_cycle;Signal;HPM_P1;HPM_P2
2023/07/24 00:00:14;;;;;;;31.55;13.13;;;;;;;14.63;100.00;92525.75;2098660;28;20028;-72
2023/07/24 00:01:16;;;;;;;31.15;13.65;;;;;;;14.70;100.00;92519.28;2106523;28;20055;-73
2023/07/24 00:02:19;;;;;;;26.08;12.38;;;;;;;14.63;100.00;92515.00;2100214;28;20118;-72
2023/07/24 00:03:20;;;;;;;27.15;11.90;;;;;;;14.63;100.00;92525.75;2107223;28;20051;-73
2023/07/24 00:04:21;;;;;;;24.77;12.65;;;;;;;14.48;100.00;92522.97;2101413;28;20028;-73
2023/07/24 00:05:22;;;;;;;27.90;12.23;;;;;;;14.57;100.00;92517.59;2087091;28;20036;-74
2023/07/24 00:06:23;;;;;;;25.17;13.05;;;;;;;14.54;100.00;92515.78;2097614;28;20067;-72
2023/07/24 00:07:25;;;;;;;27.67;12.50;;;;;;;14.48;100.00;92506.06;2104753;28;20032;-72
2023/07/24 00:08:26;;;;;;;23.80;11.80;;;;;;;14.45;100.00;92507.00;2091913;28;20052;-72
2023/07/24 00:09:27;;;;;;;23.85;12.10;;;;;;;14.47;100.00;92504.59;2097139;28;20466;-72
2023/07/24 00:10:28;;;;;;;25.30;12.10;;;;;;;14.42;100.00;92505.94;2104851;28;20107;-72
2023/07/24 00:11:30;;;;;;;29.65;12.35;;;;;;;14.47;100.00;92508.00;2105420;28;20417;-72
2023/07/24 00:12:31;;;;;;;30.17;13.27;;;;;;;14.37;100.00;92498.50;2102413;28;20119;-72
2023/07/24 00:13:32;;;;;;;26.55;12.80;;;;;;;14.43;100.00;92506.69;2108629;28;20640;-71
2023/07/24 00:14:33;;;;;;;25.50;12.23;;;;;;;14.31;100.00;92495.69;2118112;27;20042;-74
2023/07/24 00:15:34;;;;;;;28.70;13.85;;;;;;;14.22;100.00;92498.41;2108830;28;20102;-73
2023/07/24 00:16:35;;;;;;;25.00;12.13;;;;;;;14.29;100.00;92500.78;2096801;28;20021;-74
2023/07/24 00:17:36;;;;;;;26.08;11.88;;;;;;;14.33;100.00;92501.34;2095607;28;20374;-72
2023/07/24 00:18:37;;;;;;;26.45;12.63;;;;;;;14.22;100.00;92495.72;2097527;28;20032;-70
2023/07/24 00:19:38;;;;;;;29.90;13.52;;;;;;;14.27;100.00;92502.44;2105214;28;20056;-72
2023/07/24 00:20:39;;;;;;;26.40;12.38;;;;;;;14.22;100.00;92498.41;2114442;27;20031;-71
2023/07/24 00:21:40;;;;;;;26.10;12.52;;;;;;;14.16;100.00;92494.84;2096669;28;20457;-71
2023/07/24 00:22:41;;;;;;;27.33;12.13;;;;;;;14.13;100.00;92497.69;2096005;28;20182;-72
2023/07/24 00:23:42;;;;;;;28.83;11.70;;;;;;;14.19;100.00;92496.63;2111297;28;20027;-71
2023/07/24 00:24:43;;;;;;;24.83;12.30;;;;;;;14.10;100.00;92493.97;2112341;28;20036;-71
2023/07/24 00:25:44;;;;;;;27.40;12.90;;;;;;;14.17;100.00;92493.63;2119699;27;20039;-73
2023/07/24 00:26:45;;;;;;;27.58;12.02;;;;;;;14.08;100.00;92489.03;2118230;27;20035;-72
2023/07/24 00:27:46;;;;;;;25.35;12.43;;;;;;;14.05;100.00;92492.66;2114833;27;20059;-73
2023/07/24 00:28:47;;;;;;;25.13;11.75;;;;;;;14.04;100.00;92491.13;2098110;28;20040;-71
2023/07/24 00:29:48;;;;;;;27.17;13.15;;;;;;;14.10;100.00;92493.97;2096856;28;20476;-74
2023/07/24 00:30:49;;;;;;;27.35;12.73;;;;;;;14.07;100.00;92489.50;2096290;28;20028;-72
2023/07/24 00:31:50;;;;;;;26.52;13.13;;;;;;;14.06;100.00;92483.38;2096365;28;20040;-72
2023/07/24 00:32:51;;;;;;;29.77;12.30;;;;;;;14.12;100.00;92483.50;2105111;28;20036;-72
2023/07/24 00:33:52;;;;;;;25.77;12.15;;;;;;;14.11;100.00;92488.13;2107899;28;20110;-71
2023/07/24 00:34:53;;;;;;;25.05;12.20;;;;;;;14.04;100.00;92491.13;2123233;27;20071;-72
2023/07/24 00:35:57;;;;;;;25.88;12.05;;;;;;;13.96;100.00;92487.31;2122383;27;20031;-73
2023/07/24 00:36:58;;;;;;;25.05;11.93;;;;;;;13.92;100.00;92481.34;2117248;27;20129;-73
2023/07/24 00:37:59;;;;;;;23.73;12.00;;;;;;;13.86;100.00;92481.19;2126536;27;20509;-72
2023/07/24 00:39:01;;;;;;;28.45;13.07;;;;;;;13.98;100.00;92484.91;2116906;27;20055;-71
2023/07/24 00:40:03;;;;;;;27.27;12.82;;;;;;;13.94;100.00;92475.50;2121644;27;20024;-73
2023/07/24 00:41:05;;;;;;;28.30;13.15;;;;;;;13.92;100.00;92469.84;2104512;28;20101;-73
2023/07/24 00:42:06;;;;;;;28.95;13.45;;;;;;;13.97;100.00;92477.31;2106888;28;20028;-72
2023/07/24 00:43:07;;;;;;;27.58;11.85;;;;;;;14.03;100.00;92480.84;2110911;27;20031;-72
2023/07/24 00:44:08;;;;;;;26.92;12.15;;;;;;;13.98;100.00;92484.91;2104659;28;20059;-72
2023/07/24 00:45:09;;;;;;;24.50;12.27;;;;;;;13.91;100.00;92482.53;2116754;27;20024;-71
2023/07/24 00:46:11;;;;;;;25.42;12.43;;;;;;;13.90;100.00;92485.66;2116390;27;20069;-72
2023/07/24 00:47:13;;;;;;;26.85;12.98;;;;;;;13.88;100.00;92494.19;2125982;27;20069;-73
2023/07/24 00:48:14;;;;;;;28.02;12.93;;;;;;;13.86;100.00;92491.19;2117584;27;20573;-74
2023/07/24 00:49:17;;;;;;;23.65;11.80;;;;;;;13.86;100.00;92499.25;2104144;28;20028;-73
2023/07/24 00:50:18;;;;;;;27.55;12.70;;;;;;;13.77;100.00;92497.34;2116523;27;20035;-73
2023/07/24 00:51:21;;;;;;;25.77;13.00;;;;;;;13.87;100.00;92490.00;2116291;27;20039;-71
2023/07/24 00:52:22;;;;;;;28.63;12.63;;;;;;;13.88;100.00;92499.56;2111243;28;20046;-73
2023/07/24 00:53:23;;;;;;;25.75;12.25;;;;;;;13.82;100.00;92498.66;2104655;28;20048;-72
2023/07/24 00:54:24;;;;;;;28.13;12.15;;;;;;;13.78;100.00;92490.00;2099707;28;20083;-72
2023/07/24 00:55:25;;;;;;;27.08;12.55;;;;;;;13.79;100.00;92496.91;2096979;28;20063;-72
2023/07/24 00:56:27;;;;;;;29.63;12.73;;;;;;;13.77;100.00;92504.66;2111472;27;20750;-71
2023/07/24 00:57:28;;;;;;;25.77;12.57;;;;;;;13.76;100.00;92509.28;2116641;27;20150;-73
2023/07/24 00:58:30;;;;;;;28.98;12.57;;;;;;;13.78;100.00;92500.75;2122696;27;20039;-72
2023/07/24 00:59:32;;;;;;;30.75;13.15;;;;;;;13.86;100.00;92505.38;2104188;28;20086;-72
2023/07/24 01:00:33;;;;;;;28.70;13.38;;;;;;;13.89;100.00;92503.00;2096317;28;20040;-72
2023/07/24 01:01:35;;;;;;;28.90;13.13;;;;;;;13.94;100.00;92502.38;2100663;28;20032;-72
2023/07/24 01:02:37;;;;;;;28.10;13.13;;;;;;;13.98;100.00;92505.66;2092908;28;20902;-73
2023/07/24 01:03:39;;;;;;;27.30;12.85;;;;;;;14.06;100.00;92504.16;2103881;28;20413;-72
2023/07/24 01:04:40;;;;;;;31.35;13.73;;;;;;;14.16;100.00;92510.22;2097990;28;20039;-72
2023/07/24 01:05:41;;;;;;;27.02;12.60;;;;;;;14.26;100.00;92504.34;2112155;28;20254;-71
2023/07/24 01:06:42;;;;;;;27.73;13.02;;;;;;;14.34;100.00;92499.41;2121317;27;20035;-71
2023/07/24 01:07:43;;;;;;;26.27;12.15;;;;;;;14.41;100.00;92499.09;2116536;27;20153;-72
2023/07/24 01:08:44;;;;;;;28.10;12.80;;;;;;;14.42;100.00;92497.16;2112940;28;20035;-72
2023/07/24 01:09:47;;;;;;;32.83;13.07;;;;;;;14.45;100.00;92491.59;2100117;28;20377;-73
2023/07/24 01:10:48;;;;;;;29.48;13.63;;;;;;;14.42;100.00;92491.75;2102345;28;20054;-74
2023/07/24 01:12:10;;;;;;;26.90;12.35;;;;;;;14.38;100.00;92483.84;2096219;28;20021;-72
2023/07/24 01:13:19;;;;;;;30.05;12.82;;;;;;;14.24;100.00;92479.16;2103297;27;20089;-72
2023/07/24 01:14:29;;;;;;;27.17;12.85;;;;;;;14.20;100.00;92479.31;2103105;28;20067;-72
2023/07/24 01:15:34;;;;;;;27.02;12.68;;;;;;;14.32;100.00;92478.38;2107773;27;20085;-71
2023/07/24 01:16:41;;;;;;;30.27;13.88;;;;;;;14.33;100.00;92479.09;2103758;27;20024;-72
2023/07/24 01:17:48;;;;;;;33.05;14.25;;;;;;;14.31;100.00;92471.50;2098003;28;20416;-74
2023/07/24 01:18:51;;;;;;;35.28;14.10;;;;;;;14.15;100.00;92471.13;2104341;27;20450;-72
2023/07/24 01:19:55;;;;;;;26.33;13.23;;;;;;;14.08;100.00;92464.84;2107455;28;20097;-74
2023/07/24 01:20:59;;;;;;;29.05;13.98;;;;;;;14.01;100.00;92464.44;2110607;27;20023;-74
2023/07/24 01:22:24;;;;;;;26.52;13.70;;;;;;;14.02;100.00;92472.06;2109083;28;20817;-73
2023/07/24 01:23:50;;;;;;;28.13;13.35;;;;;;;13.99;100.00;92461.47;2093625;28;20046;-72
2023/07/24 01:25:10;;;;;;;29.02;13.60;;;;;;;14.02;100.00;92464.00;2102068;28;20054;-71
2023/07/24 01:26:12;;;;;;;34.45;13.90;;;;;;;13.86;100.00;92454.31;2098258;28;20054;-72
2023/07/24 01:27:30;;;;;;;31.50;13.90;;;;;;;13.94;100.00;92459.38;2099574;28;20066;-72
2023/07/24 01:28:58;;;;;;;28.80;13.18;;;;;;;13.92;100.00;92448.38;2102792;27;20027;-72
2023/07/24 01:30:07;;;;;;;33.45;13.85;;;;;;;13.79;100.00;92445.84;2112509;27;20194;-73
2023/07/24 01:31:08;;;;;;;27.77;13.40;;;;;;;13.80;100.00;92441.97;2096071;28;20039;-72
2023/07/24 01:32:09;;;;;;;30.92;13.88;;;;;;;13.88;100.00;92435.09;2105087;28;20036;-74
2023/07/24 01:33:10;;;;;;;28.48;14.20;;;;;;;13.94;100.00;92433.25;2097327;28;20020;-71
2023/07/24 01:34:11;;;;;;;30.98;13.68;;;;;;;13.92;100.00;92432.25;2095648;28;20025;-72
2023/07/24 01:35:12;;;;;;;30.63;13.32;;;;;;;13.85;100.00;92434.03;2096110;28;20139;-71
2023/07/24 01:36:14;;;;;;;27.10;13.68;;;;;;;13.86;100.00;92424.03;2104327;28;20055;-72
2023/07/24 01:37:16;;;;;;;28.45;13.18;;;;;;;13.89;100.00;92425.81;2112928;28;20031;-72
2023/07/24 01:38:17;;;;;;;27.92;13.40;;;;;;;13.82;100.00;92434.19;2102569;28;20085;-72
2023/07/24 01:39:20;;;;;;;30.40;13.68;;;;;;;13.79;100.00;92427.81;2112636;28;20055;-72
2023/07/24 01:40:23;;;;;;;31.58;13.43;;;;;;;13.84;100.00;92429.13;2104496;28;20043;-72
2023/07/24 01:41:24;;;;;;;32.13;14.05;;;;;;;13.90;100.00;92421.19;2096306;28;20498;-73
2023/07/24 01:42:26;;;;;;;29.73;13.88;;;;;;;13.97;100.00;92426.25;2100057;28;20031;-72
2023/07/24 01:44:57;;;;;;;;;;;;;;;;;;;;;
2023/07/24 01:46:36;;;;;;;31.92;13.23;;;;;;;13.97;100.00;92418.94;2072874;28;20037;-72
2023/07/24 01:48:45;;;;;;;30.73;12.43;;;;;;;13.82;100.00;92410.03;2086402;28;20033;-72
2023/07/24 01:49:49;;;;;;;31.80;13.00;;;;;;;13.82;100.00;92410.03;2080392;28;20040;-74
2023/07/24 01:50:51;;;;;;;28.52;12.98;;;;;;;13.81;100.00;92419.28;2092818;28;20360;-73
2023/07/24 01:51:52;;;;;;;27.75;13.07;;;;;;;13.74;100.00;92412.31;2112848;28;20027;-74
2023/07/24 01:52:52;;;;;;;31.15;13.88;;;;;;;13.83;100.00;92414.22;2120095;27;20605;-72
2023/07/24 01:53:53;;;;;;;32.08;13.90;;;;;;;13.81;100.00;92405.84;2121430;27;20897;-72
2023/07/24 01:54:54;;;;;;;29.35;13.10;;;;;;;13.76;100.00;92415.25;2112302;28;20035;-72
2023/07/24 01:55:55;;;;;;;29.15;13.50;;;;;;;13.67;100.00;92426.03;2120772;27;20485;-74
2023/07/24 01:56:56;;;;;;;30.08;13.23;;;;;;;13.70;100.00;92419.78;2121850;27;20034;-73
2023/07/24 01:57:57;;;;;;;24.80;12.63;;;;;;;13.68;100.00;92424.84;2111526;28;20044;-72
2023/07/24 01:58:58;;;;;;;26.73;12.57;;;;;;;13.59;100.00;92419.50;2096205;28;20040;-73
2023/07/24 01:59:59;;;;;;;29.45;13.75;;;;;;;13.47;100.00;92417.72;2093578;28;20040;-73
2023/07/24 02:01:02;;;;;;;28.83;12.98;;;;;;;13.52;100.00;92425.16;2095314;28;20033;-73
2023/07/24 02:02:04;;;;;;;28.13;13.27;;;;;;;13.39;100.00;92425.38;2105186;27;20032;-71
2023/07/24 02:03:05;;;;;;;32.67;14.13;;;;;;;13.41;100.00;92419.53;2116457;27;20035;-73
2023/07/24 02:04:07;;;;;;;31.58;13.27;;;;;;;13.42;100.00;92421.75;2118721;27;20035;-73
2023/07/24 02:05:08;;;;;;;30.55;14.18;;;;;;;13.44;100.00;92429.38;2112954;28;20120;-72
2023/07/24 02:06:09;;;;;;;26.55;13.07;;;;;;;13.44;100.00;92424.75;2099684;28;20054;-74
2023/07/24 02:07:10;;;;;;;30.88;14.10;;;;;;;13.38;100.00;92418.47;2112569;28;20035;-73
2023/07/24 02:08:11;;;;;;;33.08;14.70;;;;;;;13.37;100.00;92429.69;2099669;28;20082;-74
2023/07/24 02:09:12;;;;;;;34.58;14.50;;;;;;;13.37;100.00;92421.63;2103867;28;20023;-72
2023/07/24 02:10:13;;;;;;;29.70;13.70;;;;;;;13.33;100.00;92413.72;2096559;28;20112;-72
2023/07/24 02:11:15;;;;;;;31.58;13.23;;;;;;;13.36;100.00;92418.19;2100272;28;20166;-72
2023/07/24 02:12:17;;;;;;;28.73;12.90;;;;;;;13.28;100.00;92417.00;2113319;28;20085;-72
2023/07/24 02:13:20;;;;;;;32.05;14.68;;;;;;;13.25;100.00;92407.91;2120640;27;20035;-73
2023/07/24 02:14:21;;;;;;;26.52;12.93;;;;;;;13.29;100.00;92407.75;2112719;28;20086;-74
2023/07/24 02:15:22;;;;;;;29.80;13.18;;;;;;;13.32;100.00;92409.56;2112955;28;20078;-73
2023/07/24 02:16:24;;;;;;;27.63;13.20;;;;;;;13.28;100.00;92407.03;2120514;27;20043;-72
2023/07/24 02:17:25;;;;;;;32.85;13.93;;;;;;;13.29;100.00;92402.41;2120722;27;20035;-72
2023/07/24 02:18:26;;;;;;;32.17;13.27;;;;;;;13.15;100.00;92409.09;2121967;27;20388;-72
2023/07/24 02:19:27;;;;;;;28.48;13.02;;;;;;;13.13;100.00;92408.81;2118281;27;20064;-73
2023/07/24 02:22:10;;;;;;;;;;;;;;;13.06;100.00;92399.13;2143164;27;20118;-72
2023/07/24 02:23:12;;;;;;;27.77;12.27;;;;;;;13.07;100.00;92405.97;2143522;27;20257;-72
2023/07/24 02:24:13;;;;;;;32.78;12.93;;;;;;;12.93;100.00;92401.22;2130982;27;20423;-72
2023/07/24 02:25:14;;;;;;;32.63;14.25;;;;;;;12.91;100.00;92400.19;2129115;27;20054;-72
2023/07/24 02:26:15;;;;;;;25.08;12.77;;;;;;;12.91;100.00;92394.81;2115731;27;20553;-74
2023/07/24 02:27:31;;;;;;;30.27;14.02;;;;;;;12.92;100.00;92386.31;2116142;27;20462;-74
2023/07/24 02:28:32;;;;;;;30.98;14.82;;;;;;;12.84;100.00;92387.81;2120714;27;20042;-74
2023/07/24 02:29:33;;;;;;;30.27;12.88;;;;;;;12.77;100.00;92388.09;2111687;28;20050;-73
2023/07/24 02:30:38;;;;;;;29.38;13.32;;;;;;;12.80;100.00;92384.53;2110469;27;20035;-74
2023/07/24 02:31:42;;;;;;;27.58;12.68;;;;;;;12.80;100.00;92385.25;2112531;27;20035;-75
2023/07/24 02:32:43;;;;;;;27.48;13.02;;;;;;;12.69;100.00;92384.25;2123728;27;20035;-73
2023/07/24 02:33:44;;;;;;;27.05;12.98;;;;;;;12.68;100.00;92382.72;2133148;27;20046;-72
2023/07/24 02:34:45;;;;;;;30.95;12.68;;;;;;;12.64;100.00;92390.91;2134533;27;20031;-74
2023/07/24 02:35:46;;;;;;;27.00;13.30;;;;;;;12.73;100.00;92384.81;2122576;27;20054;-73
2023/07/24 02:36:48;;;;;;;28.92;13.82;;;;;;;12.77;100.00;92382.72;2129648;27;20147;-72
2023/07/24 02:37:49;;;;;;;28.92;13.07;;;;;;;12.76;100.00;92390.03;2122665;27;20080;-73
2023/07/24 02:38:50;;;;;;;33.05;12.90;;;;;;;12.75;100.00;92382.44;2127248;27;20066;-72
2023/07/24 02:39:52;;;;;;;28.45;13.18;;;;;;;12.80;100.00;92382.59;2132289;27;20479;-72
2023/07/24 02:40:53;;;;;;;30.67;12.80;;;;;;;12.72;100.00;92384.06;2115131;28;20033;-73
2023/07/24 02:41:54;;;;;;;28.20;12.90;;;;;;;12.66;100.00;92383.19;2125641;27;20481;-72
2023/07/24 02:42:55;;;;;;;27.17;13.10;;;;;;;12.69;100.00;92382.31;2129858;27;20032;-71
2023/07/24 02:43:56;;;;;;;32.30;13.52;;;;;;;12.79;100.00;92386.47;2133035;27;20339;-72
2023/07/24 02:44:57;;;;;;;31.05;13.95;;;;;;;12.79;100.00;92375.75;2132811;27;20050;-72
2023/07/24 02:46:02;;;;;;;31.02;13.48;;;;;;;12.76;100.00;92383.94;2132548;27;20030;-73
2023/07/24 02:47:03;;;;;;;32.08;13.77;;;;;;;12.77;100.00;92382.72;2141792;27;20030;-72
2023/07/24 02:48:05;;;;;;;29.80;13.23;;;;;;;12.68;100.00;92388.84;2131267;27;20083;-73
2023/07/24 02:49:07;;;;;;;32.38;13.93;;;;;;;12.64;100.00;92382.13;2118453;28;20031;-72
2023/07/24 02:50:08;;;;;;;29.75;13.73;;;;;;;12.69;100.00;92389.59;2124147;27;20057;-71
2023/07/24 02:51:09;;;;;;;30.92;13.57;;;;;;;12.65;100.00;92384.38;2128326;27;20490;-72
2023/07/24 02:52:10;;;;;;;32.65;13.52;;;;;;;12.58;100.00;92385.41;2128679;27;20030;-73
2023/07/24 02:53:11;;;;;;;28.67;12.95;;;;;;;12.63;100.00;92381.38;2142987;27;20490;-72
2023/07/24 02:54:12;;;;;;;30.52;12.93;;;;;;;12.68;100.00;92375.44;2131630;27;20018;-72
2023/07/24 02:55:13;;;;;;;26.75;13.52;;;;;;;12.65;100.00;92373.66;2124334;27;20035;-73
2023/07/24 02:56:14;;;;;;;31.15;13.63;;;;;;;12.73;100.00;92376.78;2128997;27;20035;-74
2023/07/24 02:57:15;;;;;;;29.50;13.55;;;;;;;12.69;100.00;92378.88;2140954;27;20037;-72
2023/07/24 02:58:16;;;;;;;32.28;14.02;;;;;;;12.67;100.00;92375.88;2129926;27;20029;-73
2023/07/24 02:59:17;;;;;;;29.95;14.13;;;;;;;12.68;100.00;92378.09;2131194;27;20034;-73
2023/07/24 03:00:20;;;;;;;29.70;13.15;;;;;;;12.61;100.00;92383.78;2130330;27;20034;-71
2023/07/24 03:01:20;;;;;;;29.02;13.35;;;;;;;12.68;100.00;92380.78;2112949;28;20058;-72
2023/07/24 03:02:21;;;;;;;30.00;13.82;;;;;;;12.72;100.00;92384.06;2124299;27;20416;-74
2023/07/24 03:03:22;;;;;;;27.48;13.15;;;;;;;12.78;100.00;92384.97;2141474;27;20037;-74
2023/07/24 03:04:24;;;;;;;29.17;12.63;;;;;;;12.72;100.00;92380.66;2126375;27;20031;-71
2023/07/24 03:05:25;;;;;;;28.90;12.88;;;;;;;12.69;100.00;92378.88;2133112;27;20035;-71
2023/07/24 03:06:26;;;;;;;25.70;12.68;;;;;;;12.66;100.00;92380.50;2131964;27;20042;-72
2023/07/24 03:07:27;;;;;;;29.00;13.45;;;;;;;12.63;100.00;92391.38;2114155;28;20031;-72
2023/07/24 03:08:28;;;;;;;29.35;13.98;;;;;;;12.62;100.00;92389.88;2117273;28;20079;-73
2023/07/24 03:09:29;;;;;;;30.48;13.77;;;;;;;12.53;100.00;92383.31;2109596;28;20032;-72
2023/07/24 03:10:30;;;;;;;30.58;13.45;;;;;;;12.60;100.00;92383.03;2116967;27;20032;-72
2023/07/24 03:11:31;;;;;;;29.50;14.13;;;;;;;12.62;100.00;92384.53;2113965;27;20663;-72
2023/07/24 03:12:32;;;;;;;35.70;14.52;;;;;;;12.53;100.00;92388.69;2122105;27;20034;-71
2023/07/24 03:13:34;;;;;;;29.20;13.77;;;;;;;12.50;100.00;92380.78;2123379;27;20027;-71
2023/07/24 03:14:35;;;;;;;32.30;14.18;;;;;;;12.58;100.00;92387.34;2125861;27;20034;-74
2023/07/24 03:15:36;;;;;;;30.60;14.05;;;;;;;12.65;100.00;92384.38;2119797;28;20092;-72
2023/07/24 03:16:37;;;;;;;29.50;13.07;;;;;;;12.65;100.00;92384.38;2102393;28;20390;-73
2023/07/24 03:17:38;;;;;;;29.45;14.63;;;;;;;12.58;100.00;92385.41;2112562;27;20031;-71
2023/07/24 03:18:40;;;;;;;30.17;14.10;;;;;;;12.59;100.00;92391.50;2128274;27;20077;-73
2023/07/24 03:19:42;;;;;;;32.83;14.20;;;;;;;12.57;100.00;92397.31;2141320;27;20181;-72
2023/07/24 03:20:43;;;;;;;25.38;13.45;;;;;;;12.55;100.00;92394.34;2132063;27;20034;-72
2023/07/24 03:21:44;;;;;;;29.60;13.63;;;;;;;12.58;100.00;92395.38;2123935;27;20130;-71
2023/07/24 03:22:45;;;;;;;32.33;14.68;;;;;;;12.68;100.00;92396.88;2110849;27;20147;-74
2023/07/24 03:23:46;;;;;;;33.75;13.77;;;;;;;12.84;100.00;92395.84;2124382;27;20035;-72
2023/07/24 03:24:47;;;;;;;32.92;14.95;;;;;;;12.94;100.00;92391.22;2133048;27;20109;-72
2023/07/24 03:25:48;;;;;;;33.30;14.45;;;;;;;13.09;100.00;92387.50;2131151;27;20659;-72
2023/07/24 03:26:49;;;;;;;30.00;14.45;;;;;;;13.06;100.00;92388.38;2129422;27;20408;-72
2023/07/24 03:27:50;;;;;;;32.85;14.05;;;;;;;13.05;100.00;92388.84;2131048;27;20023;-72
2023/07/24 03:28:51;;;;;;;28.92;14.25;;;;;;;12.92;100.00;92385.56;2132820;27;20034;-72
2023/07/24 03:29:52;;;;;;;31.17;14.43;;;;;;;12.95;100.00;92392.72;2129297;27;20032;-73
2023/07/24 03:30:54;;;;;;;35.75;14.05;;;;;;;13.11;100.00;92395.09;2111801;28;20039;-72
2023/07/24 03:31:55;;;;;;;33.88;14.48;;;;;;;13.03;100.00;92391.97;2122215;27;20788;-73
2023/07/24 03:32:57;;;;;;;32.13;13.65;;;;;;;13.06;100.00;92396.44;2121413;27;20027;-72
2023/07/24 03:33:59;;;;;;;40.75;14.63;;;;;;;13.13;100.00;92403.44;2118576;27;20042;-72
2023/07/24 03:35:00;;;;;;;30.17;13.90;;;;;;;13.15;100.00;92409.09;2109358;28;20036;-72
2023/07/24 03:36:01;;;;;;;34.65;14.60;;;;;;;13.15;100.00;92406.41;2114092;27;20027;-72
2023/07/24 03:37:04;;;;;;;33.63;14.48;;;;;;;13.08;100.00;92396.75;2109209;28;20031;-73
2023/07/24 03:38:05;;;;;;;32.22;14.75;;;;;;;13.11;100.00;92401.19;2110255;28;20062;-72
2023/07/24 03:39:07;;;;;;;30.60;13.93;;;;;;;13.03;100.00;92393.91;2108197;28;20049;-74
2023/07/24 03:40:08;;;;;;;37.90;15.02;;;;;;;13.08;100.00;92399.44;2109808;28;20386;-72
2023/07/24 03:41:10;;;;;;;30.33;15.23;;;;;;;13.06;100.00;92396.44;2097715;27;20020;-72
2023/07/24 03:42:14;;;;;;;32.60;14.38;;;;;;;13.12;100.00;92393.88;2130230;27;20023;-73
2023/07/24 03:43:15;;;;;;;32.15;14.13;;;;;;;13.21;100.00;92401.91;2110428;27;20142;-72
2023/07/24 03:44:16;;;;;;;30.02;15.13;;;;;;;13.20;100.00;92380.91;2119944;27;20031;-73
2023/07/24 03:45:18;;;;;;;34.33;15.48;;;;;;;13.19;100.00;92392.84;2126749;27;20038;-73
2023/07/24 03:46:21;;;;;;;35.47;15.38;;;;;;;13.36;100.00;92383.31;2117634;27;20071;-72
2023/07/24 03:47:23;;;;;;;35.90;15.73;;;;;;;13.37;100.00;92374.06;2109751;27;20040;-73
2023/07/24 03:48:26;;;;;;;34.08;14.93;;;;;;;13.36;100.00;92377.94;2118203;27;20069;-72
2023/07/24 03:49:29;;;;;;;35.97;16.05;;;;;;;13.29;100.00;92364.81;2116189;27;20061;-72
2023/07/24 03:50:30;;;;;;;32.40;14.38;;;;;;;13.26;100.00;92368.44;2110389;27;20531;-72
2023/07/24 03:51:33;;;;;;;31.98;15.20;;;;;;;13.35;100.00;92373.78;2100846;28;20035;-73
2023/07/24 03:52:34;;;;;;;34.47;13.77;;;;;;;13.40;100.00;92367.78;2107617;28;20476;-71
2023/07/24 03:53:36;;;;;;;33.28;14.98;;;;;;;13.32;100.00;92369.28;2101429;28;20098;-73
2023/07/24 03:54:37;;;;;;;31.90;14.75;;;;;;;13.23;100.00;92367.38;2119267;27;20039;-73
2023/07/24 03:55:39;;;;;;;33.85;15.43;;;;;;;13.25;100.00;92361.53;2109805;28;20023;-71
2023/07/24 03:56:40;;;;;;;31.80;14.43;;;;;;;13.23;100.00;92363.94;2104736;28;20104;-71
2023/07/24 03:57:41;;;;;;;30.98;14.30;;;;;;;13.26;100.00;92360.38;2104571;28;20035;-72
2023/07/24 03:58:42;;;;;;;30.95;13.98;;;;;;;13.30;100.00;92345.59;2109946;27;20129;-72
2023/07/24 03:59:44;;;;;;;33.17;14.63;;;;;;;13.30;100.00;92342.91;2122494;27;20032;-72
2023/07/24 04:00:45;;;;;;;32.60;14.75;;;;;;;13.32;100.00;92337.81;2116581;27;20412;-71
2023/07/24 04:01:47;;;;;;;34.88;14.38;;;;;;;13.39;100.00;92344.06;2107029;28;20358;-73
2023/07/24 04:02:48;;;;;;;33.50;15.15;;;;;;;13.41;100.00;92347.06;2108508;27;20558;-72
2023/07/24 04:03:49;;;;;;;37.25;14.75;;;;;;;13.53;100.00;92341.50;2109816;27;20024;-71
2023/07/24 04:04:50;;;;;;;31.52;14.50;;;;;;;13.45;100.00;92329.59;2106023;28;20542;-72
2023/07/24 04:05:52;;;;;;;34.17;14.98;;;;;;;13.39;100.00;92325.28;2106751;28;20035;-72
2023/07/24 04:06:53;;;;;;;35.25;15.07;;;;;;;13.37;100.00;92325.72;2113361;27;20114;-72
2023/07/24 04:07:55;;;;;;;32.63;14.43;;;;;;;13.44;100.00;92324.69;2112784;27;20035;-73
2023/07/24 04:08:56;;;;;;;36.55;15.13;;;;;;;13.44;100.00;92330.78;2109843;28;20061;-71
2023/07/24 04:09:57;;;;;;;32.47;15.07;;;;;;;13.38;100.00;92329.91;2109326;28;20027;-72
2023/07/24 04:10:58;;;;;;;31.75;15.13;;;;;;;13.36;100.00;92337.69;2116089;27;20115;-74
2023/07/24 04:11:59;;;;;;;33.95;14.88;;;;;;;13.37;100.00;92336.47;2126557;27;20062;-72
2023/07/24 04:13:00;;;;;;;31.88;14.65;;;;;;;13.42;100.00;92343.91;2113790;27;20177;-71
2023/07/24 04:14:01;;;;;;;39.58;16.45;;;;;;;13.44;100.00;92344.22;2105238;28;20032;-72
2023/07/24 04:15:02;;;;;;;33.42;14.43;;;;;;;13.42;100.00;92351.22;2103130;28;20023;-74
2023/07/24 04:16:03;;;;;;;34.05;15.45;;;;;;;13.45;100.00;92351.06;2110745;27;20429;-72
2023/07/24 04:17:05;;;;;;;34.40;14.68;;;;;;;13.51;100.00;92354.63;2117583;27;20531;-74
2023/07/24 04:18:06;;;;;;;33.30;15.05;;;;;;;13.45;100.00;92366.44;2117222;27;20039;-72
2023/07/24 04:19:08;;;;;;;35.50;15.30;;;;;;;13.64;100.00;92362.47;2117161;27;20046;-74
2023/07/24 04:20:09;;;;;;;35.67;15.23;;;;;;;13.69;100.00;92361.13;2122344;27;20085;-72
2023/07/24 04:21:12;;;;;;;37.75;15.85;;;;;;;13.76;100.00;92355.44;2113343;27;20028;-72
2023/07/24 04:22:13;;;;;;;34.13;15.52;;;;;;;13.73;100.00;92354.38;2110035;28;20032;-73
2023/07/24 04:23:14;;;;;;;35.42;14.88;;;;;;;13.64;100.00;92345.63;2109380;28;20170;-72
2023/07/24 04:24:18;;;;;;;33.63;14.98;;;;;;;13.70;100.00;92352.63;2094405;28;20028;-72
2023/07/24 04:25:20;;;;;;;32.92;14.77;;;;;;;13.72;100.00;92352.91;2113740;27;20034;-72
2023/07/24 04:26:21;;;;;;;33.00;16.33;;;;;;;13.81;100.00;92352.88;2108810;28;20027;-72
2023/07/24 04:27:22;;;;;;;33.55;15.18;;;;;;;13.83;100.00;92352.44;2108836;28;20118;-71
2023/07/24 04:28:24;;;;;;;36.05;14.95;;;;;;;13.76;100.00;92356.16;2114724;27;20413;-73
2023/07/24 04:29:26;;;;;;;35.85;15.27;;;;;;;13.73;100.00;92359.03;2115282;27;20032;-72
2023/07/24 04:30:30;;;;;;;34.42;15.27;;;;;;;13.68;100.00;92351.59;2106823;28;20034;-73
2023/07/24 04:31:31;;;;;;;34.95;15.13;;;;;;;13.64;100.00;92354.41;2108296;28;20038;-73
2023/07/24 04:32:32;;;;;;;37.10;15.45;;;;;;;13.63;100.00;92349.50;2098427;28;20474;-72
2023/07/24 04:33:33;;;;;;;33.35;14.73;;;;;;;13.67;100.00;92355.47;2103170;28;20028;-73
2023/07/24 04:34:34;;;;;;;35.00;14.95;;;;;;;13.70;100.00;92349.94;2108007;27;20039;-73
2023/07/24 04:35:35;;;;;;;38.92;15.60;;;;;;;13.86;100.00;92356.88;2117691;27;20044;-72
2023/07/24 04:36:41;;;;;;;33.63;14.55;;;;;;;13.81;100.00;92358.25;2125860;27;20141;-72
2023/07/24 04:37:43;;;;;;;34.35;14.63;;;;;;;13.78;100.00;92356.47;2106842;28;20158;-75
2023/07/24 04:38:47;;;;;;;34.63;15.13;;;;;;;13.86;100.00;92354.19;2101007;28;20074;-73
2023/07/24 04:39:55;;;;;;;38.75;14.57;;;;;;;13.92;100.00;92359.69;2101243;27;20907;-73
2023/07/24 04:41:00;;;;;;;34.47;15.07;;;;;;;13.92;100.00;92362.38;2103667;27;20492;-73
2023/07/24 04:42:04;;;;;;;34.20;14.55;;;;;;;13.99;100.00;92359.34;2099923;28;20036;-72
2023/07/24 04:43:05;;;;;;;33.42;14.52;;;;;;;13.96;100.00;92363.72;2108919;27;20696;-72
2023/07/24 04:44:12;;;;;;;36.55;14.32;;;;;;;13.96;100.00;92363.72;2108413;28;20587;-72
2023/07/24 04:45:20;;;;;;;37.05;14.32;;;;;;;14.02;100.00;92361.88;2101034;28;20063;-73
2023/07/24 04:46:21;;;;;;;32.55;14.85;;;;;;;14.06;100.00;92365.16;2101991;27;20475;-72
2023/07/24 04:47:22;;;;;;;32.10;14.77;;;;;;;14.04;100.00;92361.41;2109127;28;20028;-71
2023/07/24 04:48:23;;;;;;;39.10;14.18;;;;;;;14.17;100.00;92355.81;2114181;27;20062;-72